Terminal Aerodrome Forecast
Issued by NWS

Home | Current Version | Previous Version | Graphics & Text | Print | Product List | Glossary On
Versions: 1 2 3 4 5 6 7 8 9 10 11 12 13 14 15 16 17 18 19 20 21 22 23 24 25
000
FTUS43 KGRB 210540
TAFATW
TAF
KATW 210540Z 2106/2206 00000KT P6SM SCT040 BKN120
     FM210800 03007KT 4SM BR SCT005 BKN040
      TEMPO 2108/2112 1/2SM FG BKN005
     FM211400 05009KT 4SM BR BKN006
     FM211500 11006KT P6SM SCT008 BKN020
     FM212200 11006KT P6SM BKN035
     FM220100 12005KT P6SM FEW040 SCT120=

USA.gov is the U.S. government's official web portal to all federal, state and local government web resources and services.